createdAt,value
2018-09-30T00:03:50.129Z,93.400002
2018-09-30T00:08:52.375Z,93.599998
2018-09-30T00:13:54.709Z,87.199997
2018-09-30T00:18:57.126Z,90.900002
2018-09-30T00:23:59.237Z,90.699997
2018-09-30T00:29:01.663Z,93
2018-09-30T00:34:03.947Z,93.199997
2018-09-30T00:39:06.153Z,94.5
2018-09-30T00:44:08.514Z,96.400002
2018-09-30T00:49:10.911Z,95.900002
2018-09-30T00:54:12.981Z,94.099998
2018-09-30T00:59:15.331Z,96
2018-09-30T01:04:17.666Z,94.400002
2018-09-30T01:09:20.035Z,94.099998
2018-09-30T01:14:22.232Z,95.5
2018-09-30T01:19:24.575Z,93.800003
2018-09-30T01:24:26.773Z,92.900002
2018-09-30T01:29:29.114Z,93.400002
2018-09-30T01:34:31.330Z,95.800003
2018-09-30T01:39:33.746Z,95.300003
2018-09-30T01:44:36.044Z,95.900002
2018-09-30T01:49:38.459Z,93.300003
2018-09-30T01:54:40.772Z,93
2018-09-30T01:59:42.871Z,93.199997
2018-09-30T02:04:45.102Z,89.699997
2018-09-30T02:09:47.400Z,89
2018-09-30T02:14:49.868Z,89.699997
2018-09-30T02:19:51.977Z,91.900002
2018-09-30T02:24:54.447Z,92.5
2018-09-30T02:29:56.554Z,94
2018-09-30T02:34:58.904Z,95
2018-09-30T02:40:01.208Z,94.199997
2018-09-30T02:45:03.800Z,94.099998
2018-09-30T02:50:05.807Z,92.199997
2018-09-30T02:55:08.028Z,92.5
2018-09-30T03:00:10.458Z,96
2018-09-30T03:05:12.779Z,95
2018-09-30T03:10:14.910Z,94.400002
2018-09-30T03:15:17.253Z,93.099998
2018-09-30T03:20:19.602Z,89.900002
2018-09-30T03:25:21.871Z,88.5
2018-09-30T03:30:24.275Z,93.599998
2018-09-30T03:35:26.537Z,94.199997
2018-09-30T03:40:28.839Z,91.099998
2018-09-30T03:45:31.090Z,93.599998
2018-09-30T03:50:33.341Z,92.599998
2018-09-30T03:55:35.584Z,97.099998
2018-09-30T04:00:37.955Z,99
2018-09-30T04:05:40.250Z,98.900002
2018-09-30T04:10:42.522Z,98.599998
2018-09-30T04:15:44.861Z,97.400002
2018-09-30T04:20:47.125Z,97.5
2018-09-30T04:25:49.393Z,98.199997
2018-09-30T04:30:51.723Z,99.099998
2018-09-30T04:35:53.932Z,97.599998
2018-09-30T04:40:56.335Z,98.199997
2018-09-30T04:45:58.774Z,98.699997
2018-09-30T04:51:00.865Z,99.900002
2018-09-30T04:56:03.177Z,99.900002
2018-09-30T05:01:05.504Z,99.900002
2018-09-30T05:06:07.769Z,99.400002
2018-09-30T05:11:10.020Z,99.5
2018-09-30T05:16:12.282Z,97.699997
2018-09-30T05:21:14.782Z,96.599998
2018-09-30T05:26:16.994Z,97.5
2018-09-30T05:31:19.201Z,99.199997
2018-09-30T05:36:21.442Z,99.900002
2018-09-30T05:46:26.134Z,99.599998
2018-09-30T05:51:28.479Z,99.599998
2018-09-30T05:56:30.782Z,99.900002
2018-09-30T06:01:33.033Z,99.900002
2018-09-30T06:06:35.219Z,99.900002
2018-09-30T06:11:37.611Z,99.900002
2018-09-30T06:16:39.821Z,99.900002
2018-09-30T06:21:42.201Z,88.699997
2018-09-30T06:26:44.442Z,89.099998
2018-09-30T06:31:46.795Z,86.800003
2018-09-30T06:36:48.982Z,85.400002
2018-09-30T06:41:51.420Z,85
2018-09-30T06:46:53.563Z,83.199997
2018-09-30T06:51:55.894Z,80.300003
2018-09-30T06:56:58.319Z,79.099998
2018-09-30T07:02:00.516Z,79.900002
2018-09-30T07:07:02.774Z,78.400002
2018-09-30T07:12:05.130Z,79.400002
2018-09-30T07:17:07.457Z,84.599998
2018-09-30T07:22:09.683Z,85.900002
2018-09-30T07:27:11.920Z,82.099998
2018-09-30T07:32:14.336Z,82.199997
2018-09-30T07:37:16.625Z,82.900002
2018-09-30T07:42:18.842Z,84.599998
2018-09-30T07:47:21.164Z,87.400002
2018-09-30T07:52:23.408Z,88.5
2018-09-30T07:57:25.667Z,86.5
2018-09-30T08:02:28.088Z,87
2018-09-30T08:07:30.345Z,87.699997
2018-09-30T08:12:32.737Z,88.800003
2018-09-30T08:17:34.935Z,88.400002
2018-09-30T08:22:37.549Z,87
2018-09-30T08:27:39.467Z,86.800003
2018-09-30T08:32:41.765Z,84.199997
2018-09-30T08:37:44.162Z,82
2018-09-30T08:42:46.304Z,81.699997
2018-09-30T08:47:48.745Z,80.699997
2018-09-30T08:52:50.974Z,80.199997
2018-09-30T08:57:53.202Z,73.699997
2018-09-30T09:02:55.673Z,75.5
2018-09-30T09:07:57.925Z,71.5
2018-09-30T09:13:00.112Z,72.800003
2018-09-30T09:18:02.388Z,71.400002
2018-09-30T09:23:04.717Z,69.199997
2018-09-30T09:28:07.168Z,65.800003
2018-09-30T09:33:09.491Z,65.900002
2018-09-30T09:38:11.657Z,64.400002
2018-09-30T09:43:13.856Z,61.799999
2018-09-30T09:48:16.231Z,63.200001
2018-09-30T09:53:18.533Z,62.200001
2018-09-30T09:58:20.684Z,62
2018-09-30T10:03:23.205Z,62
2018-09-30T10:08:25.340Z,62.299999
2018-09-30T10:13:27.643Z,61.900002
2018-09-30T10:18:30.062Z,59
2018-09-30T10:23:32.189Z,62.299999
2018-09-30T10:28:34.565Z,62.799999
2018-09-30T10:33:36.826Z,62.200001
2018-09-30T10:38:39.332Z,60.099998
2018-09-30T10:43:41.398Z,59.700001
2018-09-30T10:48:43.675Z,56.299999
2018-09-30T10:53:46.071Z,53.299999
2018-09-30T10:58:48.383Z,56.900002
2018-09-30T11:03:50.531Z,52.900002
2018-09-30T11:08:52.930Z,51
2018-09-30T11:13:55.116Z,52.099998
2018-09-30T11:18:57.494Z,50.299999
2018-09-30T11:23:59.783Z,43.799999
2018-09-30T11:29:02.194Z,45.599998
2018-09-30T11:34:04.408Z,47.900002
2018-09-30T11:39:06.707Z,42.599998
2018-09-30T11:44:09.214Z,41.299999
2018-09-30T11:49:11.317Z,45.099998
2018-09-30T11:54:13.518Z,44.200001
2018-09-30T11:59:15.880Z,41.099998
2018-09-30T12:04:18.085Z,40
2018-09-30T12:09:20.427Z,42.900002
2018-09-30T12:14:22.740Z,44.700001
2018-09-30T12:19:24.939Z,42.200001
2018-09-30T12:24:27.297Z,43.799999
2018-09-30T12:29:29.590Z,43.400002
2018-09-30T12:34:31.836Z,46.599998
2018-09-30T12:39:34.228Z,49.200001
2018-09-30T12:44:36.475Z,45.5
2018-09-30T12:49:38.747Z,41.400002
2018-09-30T12:54:41.122Z,37.799999
2018-09-30T12:59:43.287Z,37.700001
2018-09-30T13:04:46.016Z,41.400002
2018-09-30T13:09:47.941Z,39.700001
2018-09-30T13:14:50.249Z,39.799999
2018-09-30T13:19:52.556Z,40
2018-09-30T13:24:54.999Z,39.299999
2018-09-30T13:29:57.202Z,42.099998
2018-09-30T13:34:59.412Z,43.400002
2018-09-30T13:40:01.783Z,41.799999
2018-09-30T13:45:04.134Z,41.099998
2018-09-30T13:50:06.303Z,43.299999
2018-09-30T13:55:08.625Z,44
2018-09-30T14:00:11.061Z,44.700001
2018-09-30T14:05:13.253Z,46.400002
2018-09-30T14:10:15.523Z,44.099998
2018-09-30T14:15:17.747Z,42.700001
2018-09-30T14:20:20.107Z,41.599998
2018-09-30T14:25:22.390Z,40.799999
2018-09-30T14:30:24.815Z,41.299999
2018-09-30T14:35:26.963Z,42.400002
2018-09-30T14:40:29.273Z,44.099998
2018-09-30T14:45:31.588Z,45.900002
2018-09-30T14:50:33.819Z,46
2018-09-30T14:55:36.108Z,43.5
2018-09-30T15:00:38.431Z,44.400002
2018-09-30T15:05:41.333Z,43.900002
2018-09-30T15:10:42.954Z,43
2018-09-30T15:15:45.304Z,48
2018-09-30T15:20:47.542Z,47.900002
2018-09-30T15:25:49.857Z,50.099998
2018-09-30T15:30:52.178Z,50
2018-09-30T15:35:54.500Z,49.099998
2018-09-30T15:45:59.112Z,51.099998
2018-09-30T15:51:01.317Z,53.099998
2018-09-30T15:56:03.793Z,54.299999
2018-09-30T16:01:05.959Z,54.400002
2018-09-30T16:06:08.292Z,54.099998
2018-09-30T16:11:10.492Z,55
2018-09-30T16:16:12.884Z,54.400002
2018-09-30T16:21:15.135Z,59
2018-09-30T16:26:17.363Z,60.5
2018-09-30T16:31:19.811Z,61.200001
2018-09-30T16:36:21.983Z,61.099998
2018-09-30T16:41:24.491Z,61.599998
2018-09-30T16:46:26.712Z,61.299999
2018-09-30T16:51:28.973Z,61
2018-09-30T16:56:31.234Z,60.799999
2018-09-30T17:01:33.422Z,61.200001
2018-09-30T17:06:35.930Z,61
2018-09-30T17:11:38.164Z,61
2018-09-30T17:16:40.395Z,60.700001
2018-09-30T17:21:42.641Z,61.599998
2018-09-30T17:26:44.932Z,62.799999
2018-09-30T17:31:47.273Z,65.300003
2018-09-30T17:36:49.566Z,65.800003
2018-09-30T17:41:51.960Z,65.400002
2018-09-30T17:46:54.157Z,66.400002
2018-09-30T17:51:56.506Z,68.199997
2018-09-30T17:56:58.899Z,68.199997
2018-09-30T18:02:01.094Z,69.400002
2018-09-30T18:07:03.266Z,70.699997
2018-09-30T18:12:05.562Z,72.199997
2018-09-30T18:17:07.945Z,73
2018-09-30T18:22:10.237Z,74.5
2018-09-30T18:27:12.422Z,76.099998
2018-09-30T18:32:14.833Z,74.699997
2018-09-30T18:37:17.088Z,75
2018-09-30T18:42:19.354Z,74.800003
2018-09-30T18:47:21.627Z,75
2018-09-30T18:52:24.218Z,76
2018-09-30T18:57:26.260Z,77.5
2018-09-30T19:02:28.524Z,77.900002
2018-09-30T19:07:30.786Z,79
2018-09-30T19:12:33.321Z,79.5
2018-09-30T19:17:35.397Z,80.599998
2018-09-30T19:22:37.766Z,78.300003
2018-09-30T19:27:40.191Z,81.400002
2018-09-30T19:32:42.320Z,83.300003
2018-09-30T19:37:44.721Z,83.599998
2018-09-30T19:42:46.913Z,83
2018-09-30T19:47:49.312Z,83.900002
2018-09-30T19:52:51.606Z,83.900002
2018-09-30T19:57:53.703Z,84.599998
2018-09-30T20:02:56.125Z,84.900002
2018-09-30T20:07:58.693Z,85.599998
2018-09-30T20:13:00.638Z,84.300003
2018-09-30T20:18:02.942Z,82.400002
2018-09-30T20:23:05.399Z,81.599998
2018-09-30T20:28:07.616Z,81.599998
2018-09-30T20:33:09.849Z,82.099998
2018-09-30T20:38:12.130Z,82.199997
2018-09-30T20:43:14.521Z,82.900002
2018-09-30T20:48:16.759Z,81.900002
2018-09-30T20:53:19.026Z,82.099998
2018-09-30T20:58:21.506Z,82.5
2018-09-30T21:03:23.572Z,81.900002
2018-09-30T21:08:25.932Z,82
2018-09-30T21:13:28.287Z,82.400002
2018-09-30T21:18:30.570Z,82.599998
2018-09-30T21:23:32.742Z,83
2018-09-30T21:28:35.202Z,83.900002
2018-09-30T21:33:37.482Z,85.099998
2018-09-30T21:38:39.793Z,85.800003
2018-09-30T21:43:41.966Z,86.400002
2018-09-30T21:48:44.417Z,87.900002
2018-09-30T21:53:46.457Z,89.199997
2018-09-30T21:58:48.805Z,90.300003
2018-09-30T22:03:51.202Z,89.800003
2018-09-30T22:08:53.498Z,90.599998
2018-09-30T22:13:55.738Z,90.699997
2018-09-30T22:18:58.071Z,90.099998
2018-09-30T22:24:00.370Z,90.5
2018-09-30T22:29:02.568Z,91.199997
2018-09-30T22:34:04.915Z,91.800003
2018-09-30T22:39:07.215Z,92.699997
2018-09-30T22:44:09.674Z,93
2018-09-30T22:49:11.770Z,93.300003
2018-09-30T22:54:14.070Z,93.5
2018-09-30T22:59:16.329Z,94.199997
2018-09-30T23:04:18.733Z,95
2018-09-30T23:09:21.013Z,95.5
2018-09-30T23:14:23.321Z,96
2018-09-30T23:19:25.533Z,95.900002
2018-09-30T23:24:27.906Z,96
2018-09-30T23:29:30.068Z,95.900002
2018-09-30T23:34:33.246Z,96.900002
2018-09-30T23:39:34.783Z,97.5
2018-09-30T23:44:36.966Z,98.400002
2018-09-30T23:49:39.417Z,99.300003
2018-09-30T23:54:41.636Z,99.900002
2018-09-30T23:59:43.916Z,99.900002
